Time;durP1;ratioP1;P1;durP2;ratioP2;P2;SDS_P1;SDS_P2;PMS_P1;PMS_P2;Temp;Humidity;BMP_temperature;BMP_pressure;BME280_temperature;BME280_humidity;BME280_pressure;Samples;Min_cycle;Max_cycle;Signal;HPM_P1;HPM_P2
2022/11/21 00:00:51;;;;;;;6.05;3.10;;;16.20;99.90;;;;;;4243499;27;20210;-76
2022/11/21 00:02:53;;;;;;;4.88;2.65;;;16.20;99.90;;;;;;4247769;27;20258;-76
2022/11/21 00:04:56;;;;;;;5.82;3.03;;;16.20;99.90;;;;;;4248793;27;20205;-76
2022/11/21 00:06:58;;;;;;;5.00;3.10;;;16.20;99.90;;;;;;4249163;27;20222;-76
2022/11/21 00:09:01;;;;;;;5.53;2.97;;;16.20;99.90;;;;;;4249212;27;20789;-76
2022/11/21 00:11:03;;;;;;;7.45;2.85;;;16.10;99.90;;;;;;4232350;27;20254;-76
2022/11/21 00:13:06;;;;;;;5.43;2.88;;;16.10;99.90;;;;;;4248847;27;20221;-76
2022/11/21 00:15:11;;;;;;;5.35;2.67;;;16.20;99.90;;;;;;4248680;27;20257;-76
2022/11/21 00:17:13;;;;;;;5.13;2.80;;;16.10;99.90;;;;;;4248684;27;20661;-76
2022/11/21 00:19:15;;;;;;;5.45;2.92;;;16.10;99.90;;;;;;4246665;27;20370;-76
2022/11/21 00:21:19;;;;;;;6.50;3.10;;;16.10;99.90;;;;;;4234005;27;20619;-76
2022/11/21 00:23:21;;;;;;;6.60;2.88;;;16.10;99.90;;;;;;4246163;27;20224;-76
2022/11/21 00:25:24;;;;;;;4.88;2.83;;;16.10;99.90;;;;;;4234450;27;20250;-76
2022/11/21 00:27:26;;;;;;;4.15;2.53;;;16.10;99.90;;;;;;4245215;27;20259;-76
2022/11/21 00:29:29;;;;;;;5.28;2.63;;;16.10;99.90;;;;;;4235386;27;20262;-77
2022/11/21 00:31:32;;;;;;;4.63;2.25;;;16.10;99.90;;;;;;4244297;27;20274;-77
2022/11/21 00:33:35;;;;;;;4.68;2.80;;;16.10;99.90;;;;;;4236568;27;20629;-77
2022/11/21 00:35:38;;;;;;;6.97;3.10;;;16.10;99.90;;;;;;4243242;27;20210;-77
2022/11/21 00:37:40;;;;;;;4.35;2.63;;;16.10;99.90;;;;;;4229318;27;20282;-77
2022/11/21 00:39:42;;;;;;;5.78;2.67;;;16.10;99.90;;;;;;4242310;27;20209;-77
2022/11/21 00:41:45;;;;;;;6.53;2.90;;;16.10;99.90;;;;;;4228337;27;20248;-77
2022/11/21 00:43:47;;;;;;;4.32;2.80;;;16.10;99.90;;;;;;4223514;28;20206;-77
2022/11/21 00:45:50;;;;;;;4.35;2.55;;;16.10;99.90;;;;;;4221655;28;20239;-77
2022/11/21 00:47:53;;;;;;;5.75;2.88;;;16.10;99.90;;;;;;4224441;28;20264;-77
2022/11/21 00:49:56;;;;;;;6.15;2.75;;;16.10;99.90;;;;;;4222035;28;20202;-77
2022/11/21 00:51:59;;;;;;;3.97;2.83;;;16.10;99.90;;;;;;4223423;28;20222;-77
2022/11/21 00:54:01;;;;;;;5.10;3.08;;;16.10;99.90;;;;;;4222791;28;20254;-77
2022/11/21 00:56:03;;;;;;;5.03;2.53;;;16.10;99.90;;;;;;4222421;28;20207;-77
2022/11/21 00:58:05;;;;;;;5.68;2.50;;;16.10;99.90;;;;;;4223134;28;20229;-77
2022/11/21 01:00:10;;;;;;;5.28;2.92;;;16.10;99.90;;;;;;4221779;28;20210;-77
2022/11/21 01:02:12;;;;;;;5.68;2.72;;;16.10;99.90;;;;;;4196516;28;20256;-77
2022/11/21 01:04:16;;;;;;;4.78;2.42;;;16.10;99.90;;;;;;4224080;28;20210;-77
2022/11/21 01:06:18;;;;;;;5.50;2.85;;;16.10;99.90;;;;;;4220255;28;20223;-77
2022/11/21 01:08:21;;;;;;;4.68;2.60;;;16.10;99.90;;;;;;4225377;28;21013;-77
2022/11/21 01:10:23;;;;;;;5.47;2.40;;;16.10;99.90;;;;;;4218159;28;20218;-77
2022/11/21 01:12:25;;;;;;;6.90;2.67;;;16.10;99.90;;;;;;4225812;28;20214;-77
2022/11/21 01:14:28;;;;;;;6.97;2.67;;;16.10;99.90;;;;;;4218570;28;20215;-77
2022/11/21 01:16:31;;;;;;;5.80;2.90;;;16.10;99.90;;;;;;4226071;28;20218;-77
2022/11/21 01:18:34;;;;;;;5.72;3.00;;;16.10;99.90;;;;;;4228491;28;20282;-77
2022/11/21 01:20:40;;;;;;;4.57;2.38;;;16.10;99.90;;;;;;4217015;27;20230;-77
2022/11/21 01:22:42;;;;;;;6.47;3.05;;;16.10;99.90;;;;;;4227883;28;20213;-77
2022/11/21 01:24:45;;;;;;;5.28;2.55;;;16.10;99.90;;;;;;4216074;28;20207;-77
2022/11/21 01:26:49;;;;;;;7.63;2.80;;;16.10;99.90;;;;;;4228738;28;20623;-77
2022/11/21 01:28:52;;;;;;;5.47;2.60;;;16.10;99.90;;;;;;4215200;28;20308;-80
2022/11/21 01:30:55;;;;;;;3.42;2.40;;;16.10;99.90;;;;;;4230049;28;20222;-80
2022/11/21 01:32:57;;;;;;;4.45;2.53;;;16.00;99.90;;;;;;4214582;28;20214;-80
2022/11/21 01:34:59;;;;;;;5.38;2.78;;;16.00;99.90;;;;;;4230320;28;20620;-80
2022/11/21 01:37:03;;;;;;;4.10;2.35;;;16.10;99.90;;;;;;4230918;28;20201;-80
2022/11/21 01:39:07;;;;;;;5.38;2.75;;;16.10;99.90;;;;;;4217603;28;20230;-80
2022/11/21 01:41:11;;;;;;;5.75;2.30;;;16.10;99.90;;;;;;4229570;28;20256;-79
2022/11/21 01:43:15;;;;;;;6.18;2.30;;;16.10;99.90;;;;;;4228897;28;20275;-79
2022/11/21 01:45:54;;;;;;;4.93;2.78;;;16.00;99.90;;;;;;4216071;28;20210;-79
2022/11/21 01:47:56;;;;;;;5.20;2.75;;;16.00;99.90;;;;;;4222131;28;20210;-80
2022/11/21 01:49:58;;;;;;;5.10;2.63;;;16.10;99.90;;;;;;4221272;28;20275;-79
2022/11/21 01:52:07;;;;;;;4.88;2.95;;;16.00;99.90;;;;;;4222048;28;20243;-79
2022/11/21 01:54:14;;;;;;;5.13;2.70;;;16.00;99.90;;;;;;4222700;28;20271;-79
2022/11/21 01:56:17;;;;;;;4.30;2.72;;;16.00;99.90;;;;;;4230411;28;20213;-79
2022/11/21 01:58:20;;;;;;;3.90;2.35;;;16.00;99.90;;;;;;4219170;28;20287;-79
2022/11/21 02:00:25;;;;;;;4.53;2.55;;;16.00;99.90;;;;;;4223545;28;20577;-79
2022/11/21 02:02:31;;;;;;;4.93;2.38;;;16.00;99.90;;;;;;4225692;28;20578;-80
2022/11/21 02:04:34;;;;;;;6.00;2.58;;;16.00;99.90;;;;;;4230123;28;20259;-79
2022/11/21 02:06:37;;;;;;;6.03;2.72;;;16.00;99.90;;;;;;4216850;28;20838;-80
2022/11/21 02:08:44;;;;;;;4.72;2.50;;;16.00;99.90;;;;;;4227509;28;20232;-79
2022/11/21 02:10:54;;;;;;;3.30;2.15;;;16.00;99.90;;;;;;4215287;28;20666;-79
2022/11/21 02:12:58;;;;;;;4.80;2.45;;;16.00;99.90;;;;;;4229700;28;20217;-79
2022/11/21 02:15:02;;;;;;;5.80;2.47;;;16.00;99.90;;;;;;4213762;28;20731;-79
2022/11/21 02:17:07;;;;;;;4.80;2.50;;;16.00;99.90;;;;;;4227593;28;20218;-79
2022/11/21 02:19:12;;;;;;;6.18;2.75;;;16.00;99.90;;;;;;4231958;27;20241;-79
2022/11/21 02:21:30;;;;;;;3.42;2.35;;;16.00;99.90;;;;;;4229734;28;20258;-79
2022/11/21 02:23:39;;;;;;;3.67;2.10;;;16.00;99.90;;;;;;4233279;27;20278;-79
2022/11/21 02:25:43;;;;;;;5.05;2.17;;;16.10;99.90;;;;;;4229760;28;20286;-79
2022/11/21 02:27:46;;;;;;;5.13;2.10;;;16.00;99.90;;;;;;4229634;27;20251;-79
2022/11/21 02:29:49;;;;;;;4.53;2.47;;;16.00;99.90;;;;;;4229493;28;20303;-79
2022/11/21 02:31:51;;;;;;;3.75;2.17;;;16.00;99.90;;;;;;4230167;28;20221;-79
2022/11/21 02:33:54;;;;;;;4.03;2.75;;;16.10;99.90;;;;;;4229799;28;20202;-79
2022/11/21 02:36:21;;;;;;;5.05;2.88;;;16.00;99.90;;;;;;4229726;28;20210;-79
2022/11/21 02:38:27;;;;;;;5.20;2.63;;;16.00;99.90;;;;;;4204830;27;20575;-79
2022/11/21 02:40:34;;;;;;;4.35;2.38;;;16.00;99.90;;;;;;4224595;27;20272;-79
2022/11/21 02:42:41;;;;;;;5.28;2.40;;;16.00;99.90;;;;;;4228369;27;20637;-79
2022/11/21 02:44:49;;;;;;;4.53;2.10;;;16.00;99.90;;;;;;4243910;27;20262;-80
2022/11/21 02:46:52;;;;;;;4.75;2.42;;;16.00;99.90;;;;;;4246438;27;20212;-79
2022/11/21 02:48:56;;;;;;;4.22;2.17;;;16.00;99.90;;;;;;4246746;27;20257;-79
2022/11/21 02:50:58;;;;;;;4.78;2.72;;;16.00;99.90;;;;;;4246489;27;20542;-79
2022/11/21 02:53:01;;;;;;;6.88;2.60;;;16.00;99.90;;;;;;4246466;27;20254;-76
2022/11/21 02:55:04;;;;;;;3.63;2.22;;;16.00;99.90;;;;;;4229383;27;20217;-76
2022/11/21 02:57:07;;;;;;;4.55;2.25;;;16.00;99.90;;;;;;4245720;27;20208;-79
2022/11/21 02:59:10;;;;;;;5.18;2.25;;;15.90;99.90;;;;;;4229116;28;20229;-80
2022/11/21 03:01:12;;;;;;;5.73;2.23;;;16.00;99.90;;;;;;4230565;27;20628;-79
2022/11/21 03:03:15;;;;;;;3.00;2.22;;;15.90;99.90;;;;;;4240857;27;20213;-79
2022/11/21 03:05:19;;;;;;;3.47;1.88;;;15.90;99.90;;;;;;4243594;27;20555;-79
2022/11/21 03:07:21;;;;;;;3.58;1.88;;;16.00;99.90;;;;;;4245999;27;20265;-79
2022/11/21 03:09:23;;;;;;;4.13;2.03;;;16.00;99.90;;;;;;4246156;27;20213;-79
2022/11/21 03:11:26;;;;;;;5.18;2.47;;;15.90;99.90;;;;;;4246400;27;20209;-79
2022/11/21 03:13:28;;;;;;;4.63;2.38;;;16.00;99.90;;;;;;4246555;27;20665;-79
2022/11/21 03:15:34;;;;;;;3.92;1.88;;;15.90;99.90;;;;;;4246060;27;20629;-79
2022/11/21 03:17:36;;;;;;;4.93;1.95;;;16.00;99.90;;;;;;4245725;27;20264;-79
2022/11/21 03:19:38;;;;;;;4.05;2.00;;;16.00;99.90;;;;;;4246170;27;20221;-79
2022/11/21 03:21:41;;;;;;;4.82;2.13;;;16.00;99.90;;;;;;4246111;27;20221;-79
2022/11/21 03:23:43;;;;;;;2.58;1.98;;;16.00;99.90;;;;;;4245777;27;20216;-79
2022/11/21 03:25:45;;;;;;;7.20;2.33;;;16.00;99.90;;;;;;4246036;27;20201;-79
2022/11/21 03:27:52;;;;;;;4.28;2.28;;;16.00;99.90;;;;;;4241129;27;20213;-79
2022/11/21 03:29:54;;;;;;;5.80;2.40;;;16.00;99.90;;;;;;4238609;28;20205;-80
2022/11/21 03:31:58;;;;;;;3.55;1.95;;;15.90;99.90;;;;;;4228045;28;20206;-79
2022/11/21 03:34:00;;;;;;;5.10;2.33;;;15.90;99.90;;;;;;4231139;28;20221;-79
2022/11/21 03:36:02;;;;;;;4.20;1.90;;;16.00;99.90;;;;;;4237457;28;20212;-79
2022/11/21 03:38:05;;;;;;;3.42;1.90;;;16.00;99.90;;;;;;4236952;28;20654;-79
2022/11/21 03:40:08;;;;;;;4.47;1.75;;;16.00;99.90;;;;;;4233223;28;20325;-79
2022/11/21 03:42:11;;;;;;;4.00;2.00;;;16.00;99.90;;;;;;4236282;28;20619;-79
2022/11/21 03:44:13;;;;;;;3.17;1.98;;;15.90;99.90;;;;;;4233865;28;20213;-79
2022/11/21 03:46:16;;;;;;;4.18;2.08;;;15.90;99.90;;;;;;4240580;28;20254;-79
2022/11/21 03:48:19;;;;;;;3.85;1.77;;;16.00;99.90;;;;;;4234834;28;20209;-79
2022/11/21 03:50:21;;;;;;;4.75;2.22;;;15.90;99.90;;;;;;4228483;28;20263;-79
2022/11/21 03:52:24;;;;;;;4.30;1.90;;;15.90;99.90;;;;;;4228781;28;20226;-79
2022/11/21 03:54:26;;;;;;;4.70;1.90;;;15.90;99.90;;;;;;4228829;28;20250;-79
2022/11/21 03:56:28;;;;;;;3.87;2.07;;;15.90;99.90;;;;;;4229347;28;20218;-79
2022/11/21 03:58:31;;;;;;;3.08;2.00;;;15.90;99.90;;;;;;4228362;28;20214;-79
2022/11/21 04:00:33;;;;;;;4.35;2.00;;;15.90;99.90;;;;;;4231695;27;20237;-79
2022/11/21 04:02:36;;;;;;;3.30;1.95;;;15.90;99.90;;;;;;4232076;28;20217;-79
2022/11/21 04:04:39;;;;;;;2.72;1.65;;;15.90;99.90;;;;;;4241097;28;20262;-79
2022/11/21 04:06:41;;;;;;;3.42;2.60;;;15.90;99.90;;;;;;4240660;28;20205;-79
2022/11/21 04:08:44;;;;;;;2.90;1.60;;;15.90;99.90;;;;;;4240654;28;20217;-79
2022/11/21 04:10:47;;;;;;;3.38;2.10;;;15.90;99.90;;;;;;4240383;28;20250;-79
2022/11/21 04:12:49;;;;;;;4.82;2.22;;;15.90;99.90;;;;;;4240259;28;20261;-79
2022/11/21 04:14:52;;;;;;;3.08;1.90;;;15.90;99.90;;;;;;4240365;28;20217;-79
2022/11/21 04:16:54;;;;;;;5.03;1.98;;;15.90;99.90;;;;;;4239348;28;20217;-79
2022/11/21 04:18:56;;;;;;;2.92;1.60;;;15.90;99.90;;;;;;4244778;27;20258;-79
2022/11/21 04:21:01;;;;;;;3.00;1.60;;;15.90;99.90;;;;;;4240520;28;20309;-79
2022/11/21 04:23:05;;;;;;;3.00;1.77;;;15.90;99.90;;;;;;4229214;28;20214;-79
2022/11/21 04:25:08;;;;;;;4.63;1.67;;;15.90;99.90;;;;;;4244833;28;20649;-79
2022/11/21 04:27:10;;;;;;;3.33;2.05;;;15.90;99.90;;;;;;4228368;28;20598;-79
2022/11/21 04:29:13;;;;;;;2.65;1.60;;;15.90;99.90;;;;;;4221212;28;20259;-79
2022/11/21 04:31:15;;;;;;;3.55;1.83;;;15.90;99.90;;;;;;4243602;28;20213;-79
2022/11/21 04:33:18;;;;;;;3.78;1.48;;;15.90;99.90;;;;;;4228583;28;20209;-79
2022/11/21 04:35:21;;;;;;;3.63;1.98;;;15.90;99.90;;;;;;4232071;28;20545;-79
2022/11/21 04:37:25;;;;;;;3.47;2.05;;;15.90;99.90;;;;;;4228848;28;20274;-79
2022/11/21 04:39:27;;;;;;;3.75;2.03;;;15.90;99.90;;;;;;4228771;28;20214;-79
2022/11/21 04:41:30;;;;;;;2.50;1.77;;;15.90;99.90;;;;;;4241320;28;20210;-79
2022/11/21 04:43:32;;;;;;;2.47;1.58;;;15.90;99.90;;;;;;4231553;28;20210;-79
2022/11/21 04:45:34;;;;;;;3.25;1.63;;;15.90;99.90;;;;;;4246678;27;20213;-79
2022/11/21 04:47:37;;;;;;;4.28;1.90;;;15.90;99.90;;;;;;4248339;27;20216;-79
2022/11/21 04:49:39;;;;;;;4.33;1.63;;;15.90;99.90;;;;;;4248226;27;20205;-79
2022/11/21 04:51:42;;;;;;;4.55;1.80;;;15.90;99.90;;;;;;4248486;27;20293;-79
2022/11/21 04:53:45;;;;;;;3.30;1.70;;;15.90;99.90;;;;;;4248089;27;20249;-79
2022/11/21 04:55:48;;;;;;;3.28;1.95;;;15.90;99.90;;;;;;4248368;27;20205;-79
2022/11/21 04:57:50;;;;;;;2.90;1.63;;;15.90;99.90;;;;;;4248115;27;20613;-79
2022/11/21 04:59:52;;;;;;;3.88;2.10;;;15.90;99.90;;;;;;4248119;27;20237;-79
2022/11/21 05:01:55;;;;;;;3.13;1.75;;;15.90;99.90;;;;;;4247859;27;20238;-79
2022/11/21 05:03:57;;;;;;;4.28;1.80;;;15.80;99.90;;;;;;4240322;27;20259;-79
2022/11/21 05:05:59;;;;;;;3.63;1.65;;;15.90;99.90;;;;;;4234078;27;20266;-79
2022/11/21 05:08:02;;;;;;;4.65;2.17;;;15.90;99.90;;;;;;4234843;27;20286;-79
2022/11/21 05:10:06;;;;;;;3.65;1.85;;;15.80;99.90;;;;;;4231370;28;20210;-79
2022/11/21 05:14:29;;;;;;;3.72;1.70;;;15.90;99.90;;;;;;4231376;28;20202;-79
2022/11/21 05:16:33;;;;;;;3.30;1.70;;;15.90;99.90;;;;;;4231014;28;20595;-79
2022/11/21 05:18:35;;;;;;;3.63;1.95;;;15.80;99.90;;;;;;4230708;28;20259;-79
2022/11/21 05:20:37;;;;;;;3.58;1.65;;;15.80;99.90;;;;;;4244251;27;20225;-79
2022/11/21 05:22:39;;;;;;;3.55;1.73;;;15.80;99.90;;;;;;4237456;27;20717;-79
2022/11/21 05:24:42;;;;;;;4.20;1.97;;;15.80;99.90;;;;;;4248043;27;20669;-79
2022/11/21 05:26:45;;;;;;;4.63;1.65;;;15.80;99.90;;;;;;4233538;27;20214;-79
2022/11/21 05:28:48;;;;;;;2.05;1.58;;;15.80;99.90;;;;;;4240932;27;20341;-79
2022/11/21 05:30:50;;;;;;;4.15;2.10;;;15.80;99.90;;;;;;4232121;27;20267;-79
2022/11/21 05:32:52;;;;;;;3.90;1.92;;;15.80;99.90;;;;;;4241427;27;20657;-79
2022/11/21 05:34:55;;;;;;;3.53;1.48;;;15.80;99.90;;;;;;4232178;27;20283;-79
2022/11/21 05:36:58;;;;;;;3.28;1.52;;;15.80;99.90;;;;;;4247107;27;20262;-79
2022/11/21 05:39:00;;;;;;;4.32;1.88;;;15.80;99.90;;;;;;4230671;28;20217;-79
2022/11/21 05:41:02;;;;;;;3.85;1.73;;;15.80;99.90;;;;;;4230277;28;20264;-79
2022/11/21 05:45:25;;;;;;;5.13;2.00;;;15.80;99.90;;;;;;4248145;27;20198;-79
2022/11/21 05:47:28;;;;;;;3.28;1.70;;;15.80;99.90;;;;;;4244409;27;20689;-79
2022/11/21 05:49:30;;;;;;;3.42;1.95;;;15.80;99.90;;;;;;4230633;28;20202;-79
2022/11/21 05:51:32;;;;;;;2.33;1.55;;;15.80;99.90;;;;;;4242494;27;20715;-79
2022/11/21 05:53:35;;;;;;;2.75;1.70;;;15.80;99.90;;;;;;4230474;28;20218;-79
2022/11/21 05:55:38;;;;;;;3.38;1.70;;;15.70;99.90;;;;;;4233192;27;20270;-79
2022/11/21 05:57:40;;;;;;;3.47;1.83;;;15.80;99.90;;;;;;4230832;27;21001;-79
2022/11/21 05:59:43;;;;;;;2.78;1.52;;;15.80;99.90;;;;;;4241856;27;20201;-79
2022/11/21 06:04:06;;;;;;;2.83;1.58;;;15.70;99.90;;;;;;4238679;27;20202;-79
2022/11/21 06:06:10;;;;;;;4.10;1.67;;;15.70;99.90;;;;;;4234637;27;20246;-79
2022/11/21 06:08:12;;;;;;;2.80;1.63;;;15.70;99.90;;;;;;4237147;27;20267;-79
2022/11/21 06:10:15;;;;;;;3.03;1.63;;;15.70;99.90;;;;;;4240692;27;20262;-79
2022/11/21 06:12:17;;;;;;;4.05;1.80;;;15.70;99.90;;;;;;4236195;27;20301;-79
2022/11/21 06:14:19;;;;;;;4.60;1.52;;;15.70;99.90;;;;;;4240861;27;20246;-79
2022/11/21 06:16:23;;;;;;;5.35;2.05;;;15.70;99.90;;;;;;4236073;27;20262;-79
2022/11/21 06:18:26;;;;;;;4.40;1.70;;;15.70;99.90;;;;;;4232827;27;20275;-79
2022/11/21 06:20:28;;;;;;;4.10;1.60;;;15.70;99.90;;;;;;4241829;27;20229;-79
2022/11/21 06:22:31;;;;;;;2.97;1.60;;;15.70;99.90;;;;;;4247152;27;20266;-80
2022/11/21 06:24:33;;;;;;;3.15;1.60;;;15.70;99.90;;;;;;4247249;27;20209;-79
2022/11/21 06:26:35;;;;;;;3.35;1.70;;;15.70;99.90;;;;;;4247135;27;20246;-79
2022/11/21 06:28:39;;;;;;;2.55;1.40;;;15.70;99.90;;;;;;4247219;27;20555;-79
2022/11/21 06:30:41;;;;;;;2.95;1.50;;;15.60;99.90;;;;;;4246439;27;20205;-79
2022/11/21 06:32:45;;;;;;;3.37;2.00;;;15.70;99.90;;;;;;4246728;27;20273;-79
2022/11/21 06:34:47;;;;;;;2.88;1.70;;;15.70;99.90;;;;;;4246633;27;20664;-79
2022/11/21 06:36:50;;;;;;;3.67;1.60;;;15.80;99.90;;;;;;4246108;27;20266;-79
2022/11/21 06:38:54;;;;;;;4.47;1.80;;;15.70;99.90;;;;;;4246278;27;20213;-79
2022/11/21 06:40:56;;;;;;;3.53;1.50;;;15.80;99.90;;;;;;4231397;27;20279;-79
2022/11/21 06:42:58;;;;;;;2.38;1.58;;;15.80;99.90;;;;;;4235038;27;20267;-79
2022/11/21 06:45:01;;;;;;;3.20;1.70;;;15.80;99.90;;;;;;4240129;27;20277;-79
2022/11/21 06:47:03;;;;;;;3.83;1.90;;;15.80;99.90;;;;;;4223429;28;20205;-79
2022/11/21 06:49:07;;;;;;;2.97;1.80;;;15.80;99.90;;;;;;4244890;27;20213;-79
2022/11/21 06:51:18;;;;;;;2.63;1.50;;;15.80;99.90;;;;;;4228268;28;20210;-79
2022/11/21 06:53:21;;;;;;;4.55;1.60;;;15.80;99.90;;;;;;4240101;27;20263;-80
2022/11/21 06:55:24;;;;;;;3.93;1.70;;;15.80;99.90;;;;;;4229594;28;20248;-79
2022/11/21 06:57:26;;;;;;;2.70;1.63;;;15.80;99.90;;;;;;4241578;27;20258;-79
2022/11/21 06:59:28;;;;;;;2.92;1.70;;;15.90;99.90;;;;;;4229323;28;20255;-79
2022/11/21 07:01:30;;;;;;;3.08;1.83;;;15.90;99.90;;;;;;4241415;27;20229;-79
2022/11/21 07:03:33;;;;;;;3.03;1.60;;;15.90;99.90;;;;;;4233449;27;20645;-79
2022/11/21 07:05:37;;;;;;;4.68;2.08;;;15.90;99.90;;;;;;4246171;27;20250;-79
2022/11/21 07:07:39;;;;;;;4.10;1.70;;;16.00;99.90;;;;;;4245641;27;20202;-79
2022/11/21 07:09:43;;;;;;;2.40;1.50;;;16.00;99.90;;;;;;4244543;27;20250;-79
2022/11/21 07:11:45;;;;;;;3.35;1.75;;;16.00;99.90;;;;;;4242085;27;20607;-79
2022/11/21 07:13:47;;;;;;;5.68;1.73;;;16.00;99.90;;;;;;4239362;27;20206;-79
2022/11/21 07:15:52;;;;;;;4.45;1.70;;;16.00;99.90;;;;;;4230296;27;20647;-79
2022/11/21 07:17:54;;;;;;;2.83;1.42;;;16.10;99.90;;;;;;4243784;27;20258;-79
2022/11/21 07:19:57;;;;;;;2.35;1.60;;;16.10;99.90;;;;;;4238000;28;20230;-79
2022/11/21 07:22:00;;;;;;;3.92;1.63;;;16.10;99.90;;;;;;4231986;27;20221;-79
2022/11/21 07:24:03;;;;;;;3.67;1.50;;;16.20;99.90;;;;;;4237839;28;20274;-79
2022/11/21 07:26:09;;;;;;;3.50;1.70;;;16.20;99.90;;;;;;4237730;27;20209;-79
2022/11/21 07:28:18;;;;;;;2.97;1.40;;;16.20;99.90;;;;;;4236107;27;20209;-76
2022/11/21 07:30:20;;;;;;;2.45;1.55;;;16.20;99.90;;;;;;4233842;28;20273;-76
2022/11/21 07:32:23;;;;;;;3.22;1.50;;;16.20;99.90;;;;;;4234426;28;20206;-76
2022/11/21 07:34:26;;;;;;;3.38;1.77;;;16.20;99.90;;;;;;4235952;28;20773;-76
2022/11/21 07:36:28;;;;;;;2.25;1.48;;;16.30;99.90;;;;;;4233404;28;20251;-76
2022/11/21 07:38:32;;;;;;;5.13;1.70;;;16.30;99.90;;;;;;4241359;28;20305;-76
2022/11/21 07:40:34;;;;;;;3.63;1.60;;;16.30;99.90;;;;;;4242557;28;20213;-76
2022/11/21 07:42:36;;;;;;;3.72;1.60;;;16.30;99.90;;;;;;4240174;28;20286;-76
2022/11/21 07:44:39;;;;;;;2.83;1.67;;;16.30;99.90;;;;;;4237368;28;20262;-77
2022/11/21 07:46:41;;;;;;;3.45;1.73;;;16.20;99.90;;;;;;4232103;28;20259;-79
2022/11/21 07:48:43;;;;;;;3.88;1.60;;;16.30;99.90;;;;;;4242984;28;20613;-78
2022/11/21 07:50:46;;;;;;;4.72;1.80;;;16.30;99.90;;;;;;4231547;28;20245;-79
2022/11/21 07:52:48;;;;;;;3.80;1.50;;;16.40;99.90;;;;;;4244183;28;20205;-77
2022/11/21 07:54:52;;;;;;;5.07;1.60;;;16.40;99.90;;;;;;4230988;28;20263;-76
2022/11/21 07:56:54;;;;;;;3.38;1.90;;;16.40;99.90;;;;;;4247023;27;20238;-82
2022/11/21 07:58:56;;;;;;;5.68;1.55;;;16.50;99.90;;;;;;4246305;27;20209;-79
2022/11/21 08:01:02;;;;;;;4.90;2.05;;;16.40;99.90;;;;;;4236411;27;20266;-80
2022/11/21 08:03:05;;;;;;;4.13;1.73;;;16.40;99.90;;;;;;4235194;27;20273;-74
2022/11/21 08:05:08;;;;;;;10.32;2.30;;;16.40;99.90;;;;;;4237261;27;20209;-72
2022/11/21 08:07:11;;;;;;;6.63;2.20;;;16.40;99.90;;;;;;4243316;27;20274;-74
2022/11/21 08:09:13;;;;;;;5.72;2.60;;;16.60;99.90;;;;;;4239400;27;20275;-72
2022/11/21 08:11:17;;;;;;;6.40;2.05;;;16.80;99.90;;;;;;4240425;27;20221;-74
2022/11/21 08:13:19;;;;;;;6.45;1.83;;;16.90;99.90;;;;;;4237540;27;20213;-72
2022/11/21 08:15:22;;;;;;;8.38;2.25;;;17.10;99.90;;;;;;4230776;27;20611;-73
2022/11/21 08:17:26;;;;;;;10.80;2.30;;;17.30;99.90;;;;;;4229910;27;20262;-73
2022/11/21 08:19:28;;;;;;;6.88;2.30;;;17.50;99.90;;;;;;4237193;27;20370;-73
2022/11/21 08:21:30;;;;;;;6.97;2.30;;;17.60;99.90;;;;;;4235336;27;20263;-73
2022/11/21 08:23:33;;;;;;;8.23;2.97;;;17.90;99.90;;;;;;4234859;27;20580;-71
2022/11/21 08:25:37;;;;;;;8.35;2.72;;;18.00;99.90;;;;;;4235011;27;20213;-74
2022/11/21 08:27:42;;;;;;;8.50;3.40;;;17.90;99.90;;;;;;4231797;27;20210;-73
2022/11/21 08:29:44;;;;;;;10.13;2.85;;;17.90;99.90;;;;;;4234928;27;20254;-73
2022/11/21 08:31:46;;;;;;;6.50;2.63;;;17.90;99.90;;;;;;4237789;27;20262;-75
2022/11/21 08:33:57;;;;;;;6.82;2.88;;;17.80;99.90;;;;;;4240838;27;20612;-74
2022/11/21 08:36:04;;;;;;;5.55;2.20;;;18.00;99.90;;;;;;4234698;27;20697;-73
2022/11/21 08:38:06;;;;;;;8.10;2.50;;;18.10;99.90;;;;;;4232687;27;20217;-74
2022/11/21 08:40:10;;;;;;;8.93;3.00;;;18.30;99.90;;;;;;4234786;27;20658;-73
2022/11/21 08:42:11;;;;;;;5.82;2.58;;;18.40;99.90;;;;;;4238418;27;20233;-71
2022/11/21 08:44:15;;;;;;;6.43;2.55;;;18.50;99.90;;;;;;4242969;27;20278;-72
2022/11/21 08:46:18;;;;;;;7.15;2.85;;;18.50;99.90;;;;;;4237405;27;20353;-74
2022/11/21 08:48:20;;;;;;;10.38;2.65;;;18.60;99.90;;;;;;4228753;27;20213;-74
2022/11/21 08:50:23;;;;;;;4.88;2.28;;;18.80;99.90;;;;;;4238378;27;20294;-75
2022/11/21 08:52:26;;;;;;;6.07;2.33;;;18.80;99.90;;;;;;4218014;27;20222;-75
2022/11/21 08:54:28;;;;;;;7.15;2.50;;;19.00;99.90;;;;;;4230833;27;20278;-77
2022/11/21 08:56:30;;;;;;;4.53;2.08;;;19.10;99.90;;;;;;4225077;27;20221;-76
2022/11/21 08:58:33;;;;;;;3.25;2.10;;;19.10;99.90;;;;;;4235491;27;20262;-75
2022/11/21 09:00:36;;;;;;;7.82;2.42;;;19.20;99.90;;;;;;4237032;27;20213;-76
2022/11/21 09:02:39;;;;;;;5.85;2.08;;;19.30;99.90;;;;;;4241633;27;20289;-77
2022/11/21 09:04:42;;;;;;;8.98;2.80;;;19.50;99.90;;;;;;4232404;27;20243;-78
2022/11/21 09:06:45;;;;;;;15.32;2.63;;;19.60;99.90;;;;;;4233253;27;20217;-75
2022/11/21 09:08:47;;;;;;;4.57;2.30;;;19.80;99.90;;;;;;4237691;27;20217;-76
2022/11/21 09:10:50;;;;;;;7.53;2.28;;;19.80;99.90;;;;;;4223354;27;20213;-76
2022/11/21 09:12:52;;;;;;;8.15;2.63;;;19.90;99.90;;;;;;4232962;27;20283;-75
2022/11/21 09:19:36;;;;;;;7.78;2.40;;;20.00;99.90;;;;;;4237790;27;20237;-75
2022/11/21 09:21:38;;;;;;;8.40;2.75;;;20.00;99.90;;;;;;4238975;27;20266;-79
2022/11/21 09:23:40;;;;;;;11.27;2.35;;;20.10;99.90;;;;;;4230763;27;20229;-78
2022/11/21 09:25:43;;;;;;;6.80;2.35;;;20.20;99.90;;;;;;4237251;27;20209;-77
2022/11/21 09:27:45;;;;;;;6.75;2.28;;;20.20;99.90;;;;;;4240817;27;20294;-79
2022/11/21 09:29:47;;;;;;;7.28;2.28;;;20.30;99.90;;;;;;4235138;27;20932;-77
2022/11/21 09:31:50;;;;;;;6.35;2.45;;;20.20;99.90;;;;;;4239288;27;20266;-79
2022/11/21 09:33:53;;;;;;;9.65;2.47;;;20.10;99.90;;;;;;4238454;27;20269;-77
2022/11/21 09:35:58;;;;;;;6.70;2.22;;;20.00;99.90;;;;;;4240014;27;20221;-78
2022/11/21 09:38:00;;;;;;;10.82;2.42;;;20.20;99.90;;;;;;4240904;27;20263;-77
2022/11/21 09:40:03;;;;;;;11.55;2.33;;;20.30;99.90;;;;;;4235503;27;20309;-77
2022/11/21 09:42:34;;;;;;;4.80;2.45;;;20.30;99.90;;;;;;4239430;27;20282;-80
2022/11/21 09:44:55;;;;;;;6.55;2.45;;;20.50;99.90;;;;;;4239648;27;20289;-76
2022/11/21 09:47:05;;;;;;;5.43;2.25;;;20.50;99.90;;;;;;4238220;27;20255;-76
2022/11/21 09:49:13;;;;;;;5.07;2.15;;;20.50;99.90;;;;;;4239362;27;20213;-73
2022/11/21 09:51:19;;;;;;;5.40;2.25;;;20.50;99.90;;;;;;4231637;27;22121;-83
2022/11/21 09:53:26;;;;;;;5.88;2.00;;;20.60;99.90;;;;;;4240991;27;20349;-76
2022/11/21 09:55:36;;;;;;;7.32;2.67;;;20.50;99.90;;;;;;4237698;27;20243;-74
2022/11/21 09:57:39;;;;;;;9.45;2.90;;;20.70;99.90;;;;;;4230767;27;21505;-75
2022/11/21 09:59:42;;;;;;;12.32;2.42;;;20.70;99.90;;;;;;4235059;27;20267;-77
2022/11/21 10:01:44;;;;;;;7.60;2.95;;;20.70;99.90;;;;;;4235773;27;20716;-76
2022/11/21 10:03:48;;;;;;;6.45;2.45;;;20.80;99.90;;;;;;4234278;27;20237;-80
2022/11/21 10:05:58;;;;;;;6.38;2.67;;;20.70;99.90;;;;;;4237797;27;20243;-81
2022/11/21 10:08:07;;;;;;;8.90;2.78;;;20.80;99.90;;;;;;4237175;27;20216;-72
2022/11/21 10:10:29;;;;;;;5.75;2.30;;;20.90;99.90;;;;;;4235253;27;20257;-76
2022/11/21 10:12:38;;;;;;;11.85;2.30;;;20.90;99.90;;;;;;4235253;27;20208;-76
2022/11/21 10:14:55;;;;;;;6.60;2.30;;;20.90;99.90;;;;;;4238079;27;20251;-76
2022/11/21 10:17:09;;;;;;;3.80;1.85;;;20.90;99.90;;;;;;4235020;27;21555;-75
2022/11/21 10:19:33;;;;;;;9.88;3.13;;;20.90;99.90;;;;;;4235143;27;20237;-75
2022/11/21 10:21:52;;;;;;;5.47;2.03;;;20.90;99.90;;;;;;4223597;27;20213;-73
2022/11/21 10:24:14;;;;;;;4.95;2.50;;;20.90;99.90;;;;;;4224840;27;20330;-73
2022/11/21 10:26:21;;;;;;;5.07;2.50;;;21.00;99.90;;;;;;4222922;27;20206;-71
2022/11/21 10:28:33;;;;;;;6.65;2.22;;;21.10;99.90;;;;;;4223759;27;20725;-71
2022/11/21 10:30:40;;;;;;;5.25;2.30;;;21.10;99.90;;;;;;4224868;27;20205;-73
2022/11/21 10:32:46;;;;;;;5.00;2.20;;;21.20;99.90;;;;;;4225605;27;20263;-72
2022/11/21 10:34:51;;;;;;;5.85;2.22;;;21.20;99.90;;;;;;4224357;27;20259;-71
2022/11/21 10:36:58;;;;;;;7.63;2.63;;;21.10;99.90;;;;;;4223821;27;20217;-74
2022/11/21 10:39:05;;;;;;;10.90;2.50;;;21.10;99.90;;;;;;4223811;27;20258;-77
2022/11/21 10:41:15;;;;;;;9.50;2.65;;;21.10;99.90;;;;;;4228532;27;20210;-77
2022/11/21 10:45:56;;;;;;;7.43;2.65;;;21.20;99.90;;;;;;4224530;27;20198;-77
2022/11/21 10:47:58;;;;;;;5.20;2.35;;;21.10;99.90;;;;;;4221661;27;20213;-77
2022/11/21 10:50:10;;;;;;;5.28;2.40;;;21.10;99.90;;;;;;4219154;27;20214;-74
2022/11/21 10:52:19;;;;;;;8.00;2.42;;;21.20;99.90;;;;;;4222133;27;20972;-76
2022/11/21 10:54:33;;;;;;;7.45;2.58;;;21.30;99.90;;;;;;4222212;27;20209;-76
2022/11/21 10:56:36;;;;;;;11.25;2.50;;;21.10;99.90;;;;;;4229457;27;20218;-77
2022/11/21 10:58:44;;;;;;;6.85;2.47;;;21.20;99.90;;;;;;4225925;27;20266;-75